sensor_id;sensor_type;location;lat;lon;timestamp;pressure;altitude;pressure_sealevel;temperature;humidity
5651;BME280;40241;52.684;9.758;2023-04-28T00:02:09;101515.38;;;7.45;48.01
5651;BME280;40241;52.684;9.758;2023-04-28T00:04:35;101512.03;;;7.41;48.02
5651;BME280;40241;52.684;9.758;2023-04-28T00:07:00;101509.13;;;7.35;48.05
5651;BME280;40241;52.684;9.758;2023-04-28T00:09:25;101512.44;;;7.30;48.19
5651;BME280;40241;52.684;9.758;2023-04-28T00:11:51;101506.78;;;7.25;48.37
5651;BME280;40241;52.684;9.758;2023-04-28T00:14:16;101493.84;;;7.25;48.26
5651;BME280;40241;52.684;9.758;2023-04-28T00:16:42;101499.00;;;7.23;48.35
5651;BME280;40241;52.684;9.758;2023-04-28T00:19:07;101496.41;;;7.20;48.57
5651;BME280;40241;52.684;9.758;2023-04-28T00:21:32;101492.59;;;7.17;48.44
5651;BME280;40241;52.684;9.758;2023-04-28T00:23:58;101488.00;;;7.14;48.38
5651;BME280;40241;52.684;9.758;2023-04-28T00:26:23;101487.38;;;7.10;48.46
5651;BME280;40241;52.684;9.758;2023-04-28T00:28:49;101486.31;;;7.08;48.48
5651;BME280;40241;52.684;9.758;2023-04-28T00:31:14;101491.47;;;7.06;48.72
5651;BME280;40241;52.684;9.758;2023-04-28T00:33:41;101478.22;;;7.04;48.58
5651;BME280;40241;52.684;9.758;2023-04-28T00:36:06;101476.72;;;7.03;48.69
5651;BME280;40241;52.684;9.758;2023-04-28T00:38:32;101482.94;;;7.04;48.74
5651;BME280;40241;52.684;9.758;2023-04-28T00:40:57;101475.94;;;7.03;48.79
5651;BME280;40241;52.684;9.758;2023-04-28T00:43:22;101471.25;;;7.03;48.88
5651;BME280;40241;52.684;9.758;2023-04-28T00:45:48;101465.78;;;7.03;48.61
5651;BME280;40241;52.684;9.758;2023-04-28T00:48:14;101456.34;;;7.04;48.83
5651;BME280;40241;52.684;9.758;2023-04-28T00:50:41;101453.91;;;7.06;49.07
5651;BME280;40241;52.684;9.758;2023-04-28T00:53:07;101448.44;;;7.06;49.25
5651;BME280;40241;52.684;9.758;2023-04-28T00:55:33;101455.88;;;7.06;48.95
5651;BME280;40241;52.684;9.758;2023-04-28T00:57:59;101449.22;;;7.07;48.82
5651;BME280;40241;52.684;9.758;2023-04-28T01:00:24;101448.44;;;7.06;49.17
5651;BME280;40241;52.684;9.758;2023-04-28T01:02:51;101447.81;;;7.02;49.09
5651;BME280;40241;52.684;9.758;2023-04-28T01:05:18;101450.56;;;7.02;49.42
5651;BME280;40241;52.684;9.758;2023-04-28T01:07:43;101450.09;;;7.04;49.40
5651;BME280;40241;52.684;9.758;2023-04-28T01:10:09;101447.25;;;7.07;49.44
5651;BME280;40241;52.684;9.758;2023-04-28T01:12:34;101442.53;;;7.08;48.93
5651;BME280;40241;52.684;9.758;2023-04-28T01:15:00;101441.31;;;7.09;49.30
5651;BME280;40241;52.684;9.758;2023-04-28T01:17:25;101444.38;;;7.11;49.23
5651;BME280;40241;52.684;9.758;2023-04-28T01:19:51;101447.88;;;7.11;49.20
5651;BME280;40241;52.684;9.758;2023-04-28T01:22:17;101441.78;;;7.07;49.14
5651;BME280;40241;52.684;9.758;2023-04-28T01:24:42;101443.44;;;7.05;49.44
5651;BME280;40241;52.684;9.758;2023-04-28T01:27:08;101444.31;;;7.02;49.16
5651;BME280;40241;52.684;9.758;2023-04-28T01:29:33;101437.34;;;7.01;49.44
5651;BME280;40241;52.684;9.758;2023-04-28T01:31:58;101436.13;;;7.02;49.71
5651;BME280;40241;52.684;9.758;2023-04-28T01:34:24;101431.09;;;7.00;49.60
5651;BME280;40241;52.684;9.758;2023-04-28T01:36:49;101431.56;;;6.99;49.77
5651;BME280;40241;52.684;9.758;2023-04-28T01:39:14;101437.78;;;6.99;49.28
5651;BME280;40241;52.684;9.758;2023-04-28T01:41:40;101433.84;;;7.00;49.33
5651;BME280;40241;52.684;9.758;2023-04-28T01:44:06;101423.78;;;6.97;49.68
5651;BME280;40241;52.684;9.758;2023-04-28T01:46:32;101420.72;;;6.95;49.44
5651;BME280;40241;52.684;9.758;2023-04-28T01:48:57;101416.91;;;6.93;49.75
5651;BME280;40241;52.684;9.758;2023-04-28T01:51:23;101416.19;;;6.92;49.76
5651;BME280;40241;52.684;9.758;2023-04-28T01:53:48;101420.41;;;6.93;49.81
5651;BME280;40241;52.684;9.758;2023-04-28T01:56:13;101414.63;;;6.91;49.76
5651;BME280;40241;52.684;9.758;2023-04-28T01:58:39;101414.63;;;6.91;50.21
5651;BME280;40241;52.684;9.758;2023-04-28T02:01:04;101412.66;;;6.92;50.06
5651;BME280;40241;52.684;9.758;2023-04-28T02:03:30;101404.59;;;6.88;50.23
5651;BME280;40241;52.684;9.758;2023-04-28T02:05:55;101404.59;;;6.88;50.26
5651;BME280;40241;52.684;9.758;2023-04-28T02:08:21;101396.72;;;6.90;49.99
5651;BME280;40241;52.684;9.758;2023-04-28T02:10:46;101397.91;;;6.89;50.20
5651;BME280;40241;52.684;9.758;2023-04-28T02:13:12;101393.06;;;6.93;50.18
5651;BME280;40241;52.684;9.758;2023-04-28T02:15:41;101389.44;;;6.96;50.41
5651;BME280;40241;52.684;9.758;2023-04-28T02:18:07;101387.03;;;6.98;49.94
5651;BME280;40241;52.684;9.758;2023-04-28T02:20:32;101382.75;;;6.97;50.36
5651;BME280;40241;52.684;9.758;2023-04-28T02:22:58;101377.72;;;6.96;50.17
5651;BME280;40241;52.684;9.758;2023-04-28T02:25:23;101371.06;;;6.97;50.47
5651;BME280;40241;52.684;9.758;2023-04-28T02:27:48;101368.75;;;6.95;50.42
5651;BME280;40241;52.684;9.758;2023-04-28T02:30:13;101376.97;;;6.95;50.62
5651;BME280;40241;52.684;9.758;2023-04-28T02:32:39;101366.47;;;6.94;50.08
5651;BME280;40241;52.684;9.758;2023-04-28T02:35:04;101359.94;;;6.91;50.47
5651;BME280;40241;52.684;9.758;2023-04-28T02:37:30;101351.72;;;6.91;50.37
5651;BME280;40241;52.684;9.758;2023-04-28T02:39:55;101355.81;;;6.87;50.24
5651;BME280;40241;52.684;9.758;2023-04-28T02:42:21;101354.47;;;6.91;50.41
5651;BME280;40241;52.684;9.758;2023-04-28T02:44:46;101348.22;;;6.91;50.70
5651;BME280;40241;52.684;9.758;2023-04-28T02:47:11;101350.53;;;6.92;50.65
5651;BME280;40241;52.684;9.758;2023-04-28T02:49:37;101341.09;;;6.93;50.89
5651;BME280;40241;52.684;9.758;2023-04-28T02:52:02;101338.06;;;6.91;50.26
5651;BME280;40241;52.684;9.758;2023-04-28T02:54:28;101340.94;;;6.88;50.32
5651;BME280;40241;52.684;9.758;2023-04-28T02:56:54;101331.19;;;6.87;50.71
5651;BME280;40241;52.684;9.758;2023-04-28T02:59:20;101334.69;;;6.87;50.45
5651;BME280;40241;52.684;9.758;2023-04-28T03:01:46;101331.97;;;6.87;50.61
5651;BME280;40241;52.684;9.758;2023-04-28T03:04:12;101322.53;;;6.88;50.76
5651;BME280;40241;52.684;9.758;2023-04-28T03:06:37;101325.59;;;6.90;50.50
5651;BME280;40241;52.684;9.758;2023-04-28T03:09:03;101324.06;;;6.89;50.29
5651;BME280;40241;52.684;9.758;2023-04-28T03:11:28;101316.94;;;6.92;50.66
5651;BME280;40241;52.684;9.758;2023-04-28T03:13:54;101315.72;;;6.93;50.61
5651;BME280;40241;52.684;9.758;2023-04-28T03:16:19;101318.00;;;6.94;50.74
5651;BME280;40241;52.684;9.758;2023-04-28T03:18:44;101307.38;;;6.96;50.25
5651;BME280;40241;52.684;9.758;2023-04-28T03:21:09;101305.06;;;6.95;50.48
5651;BME280;40241;52.684;9.758;2023-04-28T03:23:35;101295.81;;;6.92;50.61
5651;BME280;40241;52.684;9.758;2023-04-28T03:26:00;101306.78;;;6.92;50.74
5651;BME280;40241;52.684;9.758;2023-04-28T03:28:25;101294.28;;;6.91;50.51
5651;BME280;40241;52.684;9.758;2023-04-28T03:30:51;101293.53;;;6.91;50.74
5651;BME280;40241;52.684;9.758;2023-04-28T03:33:16;101290.34;;;6.92;50.72
5651;BME280;40241;52.684;9.758;2023-04-28T03:35:41;101288.38;;;6.93;50.31
5651;BME280;40241;52.684;9.758;2023-04-28T03:38:07;101289.91;;;6.94;50.68
5651;BME280;40241;52.684;9.758;2023-04-28T03:40:32;101282.47;;;6.94;50.69
5651;BME280;40241;52.684;9.758;2023-04-28T03:42:57;101282.75;;;6.96;50.63
5651;BME280;40241;52.684;9.758;2023-04-28T03:45:23;101284.59;;;6.99;50.86
5651;BME280;40241;52.684;9.758;2023-04-28T03:47:48;101268.34;;;7.05;50.81
5651;BME280;40241;52.684;9.758;2023-04-28T03:50:14;101261.81;;;7.02;50.80
5651;BME280;40241;52.684;9.758;2023-04-28T03:52:39;101266.81;;;7.04;50.78
5651;BME280;40241;52.684;9.758;2023-04-28T03:55:04;101261.53;;;7.09;50.75
5651;BME280;40241;52.684;9.758;2023-04-28T03:57:30;101261.22;;;7.07;50.80
5651;BME280;40241;52.684;9.758;2023-04-28T03:59:55;101253.59;;;7.02;50.47
5651;BME280;40241;52.684;9.758;2023-04-28T04:02:20;101261.34;;;7.04;51.07
5651;BME280;40241;52.684;9.758;2023-04-28T04:04:46;101254.22;;;7.06;51.28
5651;BME280;40241;52.684;9.758;2023-04-28T04:07:12;101254.97;;;7.07;50.94
5651;BME280;40241;52.684;9.758;2023-04-28T04:09:37;101247.22;;;7.05;50.71
5651;BME280;40241;52.684;9.758;2023-04-28T04:12:03;101241.31;;;7.07;50.92
5651;BME280;40241;52.684;9.758;2023-04-28T04:14:28;101247.53;;;7.07;50.96
5651;BME280;40241;52.684;9.758;2023-04-28T04:16:53;101241.59;;;7.09;51.06
5651;BME280;40241;52.684;9.758;2023-04-28T04:19:19;101241.91;;;7.11;51.22
5651;BME280;40241;52.684;9.758;2023-04-28T04:21:45;101237.19;;;7.11;51.00
5651;BME280;40241;52.684;9.758;2023-04-28T04:24:10;101237.66;;;7.10;51.08
5651;BME280;40241;52.684;9.758;2023-04-28T04:26:36;101239.63;;;7.09;50.79
5651;BME280;40241;52.684;9.758;2023-04-28T04:29:01;101234.78;;;7.13;51.06
5651;BME280;40241;52.684;9.758;2023-04-28T04:31:26;101254.69;;;7.14;51.00
5651;BME280;40241;52.684;9.758;2023-04-28T04:33:52;101230.81;;;7.14;50.81
5651;BME280;40241;52.684;9.758;2023-04-28T04:36:17;101222.94;;;7.16;50.81
5651;BME280;40241;52.684;9.758;2023-04-28T04:38:42;101228.72;;;7.18;51.14
5651;BME280;40241;52.684;9.758;2023-04-28T04:41:08;101226.88;;;7.24;51.03
5651;BME280;40241;52.684;9.758;2023-04-28T04:43:33;101222.47;;;7.27;51.27
5651;BME280;40241;52.684;9.758;2023-04-28T04:45:59;101229.31;;;7.31;51.26
5651;BME280;40241;52.684;9.758;2023-04-28T04:48:24;101232.66;;;7.35;50.68
5651;BME280;40241;52.684;9.758;2023-04-28T04:50:50;101223.53;;;7.38;50.62
5651;BME280;40241;52.684;9.758;2023-04-28T04:53:15;101217.91;;;7.42;51.16
5651;BME280;40241;52.684;9.758;2023-04-28T04:55:40;101233.56;;;7.41;51.29
5651;BME280;40241;52.684;9.758;2023-04-28T04:58:06;101219.44;;;7.52;51.11
5651;BME280;40241;52.684;9.758;2023-04-28T05:00:31;101214.84;;;7.58;51.15
5651;BME280;40241;52.684;9.758;2023-04-28T05:02:56;101210.00;;;7.62;50.86
5651;BME280;40241;52.684;9.758;2023-04-28T05:05:22;101205.88;;;7.67;51.13
5651;BME280;40241;52.684;9.758;2023-04-28T05:07:47;101197.81;;;7.72;51.30
5651;BME280;40241;52.684;9.758;2023-04-28T05:10:12;101208.75;;;7.81;51.14
5651;BME280;40241;52.684;9.758;2023-04-28T05:12:38;101199.47;;;7.88;51.04
5651;BME280;40241;52.684;9.758;2023-04-28T05:15:04;101203.09;;;7.94;51.01
5651;BME280;40241;52.684;9.758;2023-04-28T05:17:31;101198.22;;;7.98;50.87
5651;BME280;40241;52.684;9.758;2023-04-28T05:19:56;101203.97;;;8.09;50.89
5651;BME280;40241;52.684;9.758;2023-04-28T05:22:21;101198.94;;;8.16;51.02
5651;BME280;40241;52.684;9.758;2023-04-28T05:24:46;101206.81;;;8.23;50.98
5651;BME280;40241;52.684;9.758;2023-04-28T05:27:12;101206.22;;;8.28;51.04
5651;BME280;40241;52.684;9.758;2023-04-28T05:29:37;101196.59;;;8.33;50.68
5651;BME280;40241;52.684;9.758;2023-04-28T05:32:03;101198.44;;;8.36;50.76
5651;BME280;40241;52.684;9.758;2023-04-28T05:34:28;101197.97;;;8.38;50.82
5651;BME280;40241;52.684;9.758;2023-04-28T05:36:53;101190.50;;;8.38;50.93
5651;BME280;40241;52.684;9.758;2023-04-28T05:39:19;101190.78;;;8.40;50.64
5651;BME280;40241;52.684;9.758;2023-04-28T05:41:44;101199.13;;;8.46;50.89
5651;BME280;40241;52.684;9.758;2023-04-28T05:44:09;101193.03;;;8.51;50.79
5651;BME280;40241;52.684;9.758;2023-04-28T05:46:35;101185.84;;;8.53;50.76
5651;BME280;40241;52.684;9.758;2023-04-28T05:49:01;101180.66;;;8.55;50.67
5651;BME280;40241;52.684;9.758;2023-04-28T05:51:26;101180.78;;;8.61;50.69
5651;BME280;40241;52.684;9.758;2023-04-28T05:53:52;101185.16;;;8.67;50.47
5651;BME280;40241;52.684;9.758;2023-04-28T05:56:17;101176.59;;;8.74;50.57
5651;BME280;40241;52.684;9.758;2023-04-28T05:58:43;101177.00;;;8.82;50.37
5651;BME280;40241;52.684;9.758;2023-04-28T06:01:09;101172.38;;;8.88;50.53
5651;BME280;40241;52.684;9.758;2023-04-28T06:03:35;101173.84;;;8.98;50.43
5651;BME280;40241;52.684;9.758;2023-04-28T06:06:01;101178.06;;;9.08;50.49
5651;BME280;40241;52.684;9.758;2023-04-28T06:08:26;101162.53;;;9.20;50.41
5651;BME280;40241;52.684;9.758;2023-04-28T06:10:51;101174.50;;;9.31;50.32
5651;BME280;40241;52.684;9.758;2023-04-28T06:13:17;101164.78;;;9.45;50.20
5651;BME280;40241;52.684;9.758;2023-04-28T06:15:42;101164.59;;;9.63;50.04
5651;BME280;40241;52.684;9.758;2023-04-28T06:18:07;101162.13;;;9.79;49.58
5651;BME280;40241;52.684;9.758;2023-04-28T06:20:34;101163.16;;;9.97;49.55
5651;BME280;40241;52.684;9.758;2023-04-28T06:23:00;101164.69;;;10.12;49.49
5651;BME280;40241;52.684;9.758;2023-04-28T06:25:25;101161.63;;;10.25;49.42
5651;BME280;40241;52.684;9.758;2023-04-28T06:27:50;101156.31;;;10.36;49.29
5651;BME280;40241;52.684;9.758;2023-04-28T06:30:17;101164.44;;;10.45;49.15
5651;BME280;40241;52.684;9.758;2023-04-28T06:32:45;101162.06;;;10.52;49.10
5651;BME280;40241;52.684;9.758;2023-04-28T06:35:11;101155.66;;;10.61;49.07
5651;BME280;40241;52.684;9.758;2023-04-28T06:37:36;101163.31;;;10.72;49.05
5651;BME280;40241;52.684;9.758;2023-04-28T06:40:02;101161.94;;;10.82;48.85
5651;BME280;40241;52.684;9.758;2023-04-28T06:42:27;101166.34;;;10.94;48.71
5651;BME280;40241;52.684;9.758;2023-04-28T06:44:52;101152.22;;;11.06;48.58
5651;BME280;40241;52.684;9.758;2023-04-28T06:47:17;101145.59;;;11.18;48.14
5651;BME280;40241;52.684;9.758;2023-04-28T06:49:43;101146.75;;;11.32;48.24
5651;BME280;40241;52.684;9.758;2023-04-28T06:52:09;101142.66;;;11.48;48.26
5651;BME280;40241;52.684;9.758;2023-04-28T06:54:35;101143.09;;;11.66;48.21
5651;BME280;40241;52.684;9.758;2023-04-28T06:57:02;101153.03;;;11.84;47.82
5651;BME280;40241;52.684;9.758;2023-04-28T06:59:27;101141.66;;;12.02;47.94
5651;BME280;40241;52.684;9.758;2023-04-28T07:01:53;101171.56;;;12.15;47.82
5651;BME280;40241;52.684;9.758;2023-04-28T07:04:18;101152.41;;;12.31;47.52
5651;BME280;40241;52.684;9.758;2023-04-28T07:06:43;101144.19;;;12.42;47.47
5651;BME280;40241;52.684;9.758;2023-04-28T07:09:09;101136.25;;;12.55;47.47
5651;BME280;40241;52.684;9.758;2023-04-28T07:11:34;101138.81;;;12.70;46.98
5651;BME280;40241;52.684;9.758;2023-04-28T07:14:00;101136.59;;;12.79;47.16
5651;BME280;40241;52.684;9.758;2023-04-28T07:16:25;101136.13;;;12.87;47.06
5651;BME280;40241;52.684;9.758;2023-04-28T07:18:50;101134.63;;;12.91;46.98
5651;BME280;40241;52.684;9.758;2023-04-28T07:21:16;101133.13;;;12.96;46.81
5651;BME280;40241;52.684;9.758;2023-04-28T07:23:41;101129.47;;;13.10;46.66
5651;BME280;40241;52.684;9.758;2023-04-28T07:26:07;101136.78;;;13.24;46.65
5651;BME280;40241;52.684;9.758;2023-04-28T07:28:33;101131.53;;;13.37;46.37
5651;BME280;40241;52.684;9.758;2023-04-28T07:30:59;101127.75;;;13.45;46.22
5651;BME280;40241;52.684;9.758;2023-04-28T07:33:24;101133.31;;;13.51;45.96
5651;BME280;40241;52.684;9.758;2023-04-28T07:35:49;101129.56;;;13.60;46.05
5651;BME280;40241;52.684;9.758;2023-04-28T07:38:16;101125.53;;;13.72;45.98
5651;BME280;40241;52.684;9.758;2023-04-28T07:40:42;101131.31;;;13.85;46.03
5651;BME280;40241;52.684;9.758;2023-04-28T07:43:08;101132.06;;;13.96;45.85
5651;BME280;40241;52.684;9.758;2023-04-28T07:45:38;101135.06;;;14.09;45.71
5651;BME280;40241;52.684;9.758;2023-04-28T07:48:04;101143.84;;;14.24;45.98
5651;BME280;40241;52.684;9.758;2023-04-28T07:50:29;101132.28;;;14.43;45.50
5651;BME280;40241;52.684;9.758;2023-04-28T07:52:54;101128.97;;;14.55;45.42
5651;BME280;40241;52.684;9.758;2023-04-28T07:55:20;101128.94;;;14.66;45.45
5651;BME280;40241;52.684;9.758;2023-04-28T07:57:45;101126.66;;;14.76;44.95
5651;BME280;40241;52.684;9.758;2023-04-28T08:00:11;101124.84;;;14.89;45.02
5651;BME280;40241;52.684;9.758;2023-04-28T08:02:36;101113.66;;;15.00;44.82
5651;BME280;40241;52.684;9.758;2023-04-28T08:05:02;101115.38;;;15.15;45.00
5651;BME280;40241;52.684;9.758;2023-04-28T08:07:28;101115.06;;;15.24;44.74
5651;BME280;40241;52.684;9.758;2023-04-28T08:09:53;101111.53;;;15.29;44.60
5651;BME280;40241;52.684;9.758;2023-04-28T08:12:19;101110.22;;;15.35;44.54
5651;BME280;40241;52.684;9.758;2023-04-28T08:14:46;101106.16;;;15.42;44.45
5651;BME280;40241;52.684;9.758;2023-04-28T08:17:11;101101.28;;;15.53;44.33
5651;BME280;40241;52.684;9.758;2023-04-28T08:19:36;101107.75;;;15.67;44.35
5651;BME280;40241;52.684;9.758;2023-04-28T08:22:02;101104.59;;;15.82;44.21
5651;BME280;40241;52.684;9.758;2023-04-28T08:24:31;101097.13;;;16.01;43.54
5651;BME280;40241;52.684;9.758;2023-04-28T08:27:00;101094.16;;;16.17;43.23
5651;BME280;40241;52.684;9.758;2023-04-28T08:29:30;101088.94;;;16.32;43.20
5651;BME280;40241;52.684;9.758;2023-04-28T08:31:56;101088.94;;;16.32;42.93
5651;BME280;40241;52.684;9.758;2023-04-28T08:34:22;101085.13;;;16.35;43.01
5651;BME280;40241;52.684;9.758;2023-04-28T08:36:47;101093.47;;;16.35;42.95
5651;BME280;40241;52.684;9.758;2023-04-28T08:39:13;101090.69;;;16.35;42.88
5651;BME280;40241;52.684;9.758;2023-04-28T08:41:38;101095.19;;;16.38;42.86
5651;BME280;40241;52.684;9.758;2023-04-28T08:44:08;101084.25;;;16.46;42.45
5651;BME280;40241;52.684;9.758;2023-04-28T08:46:34;101087.22;;;16.54;42.74
5651;BME280;40241;52.684;9.758;2023-04-28T08:49:00;101087.84;;;16.65;42.86
5651;BME280;40241;52.684;9.758;2023-04-28T08:51:37;101091.00;;;16.75;41.53
5651;BME280;40241;52.684;9.758;2023-04-28T08:54:09;101086.13;;;16.81;42.58
5651;BME280;40241;52.684;9.758;2023-04-28T08:56:37;101079.66;;;16.91;42.50
5651;BME280;40241;52.684;9.758;2023-04-28T08:59:03;101080.06;;;17.01;42.37
5651;BME280;40241;52.684;9.758;2023-04-28T09:01:30;101085.84;;;17.03;42.09
5651;BME280;40241;52.684;9.758;2023-04-28T09:03:56;101069.81;;;17.09;41.89
5651;BME280;40241;52.684;9.758;2023-04-28T09:06:21;101068.25;;;17.13;42.25
5651;BME280;40241;52.684;9.758;2023-04-28T09:08:47;101069.66;;;17.20;42.13
5651;BME280;40241;52.684;9.758;2023-04-28T09:11:13;101077.63;;;17.29;42.20
5651;BME280;40241;52.684;9.758;2023-04-28T09:13:39;101074.44;;;17.38;41.82
5651;BME280;40241;52.684;9.758;2023-04-28T09:16:05;101067.19;;;17.48;41.44
5651;BME280;40241;52.684;9.758;2023-04-28T09:18:31;101067.47;;;17.63;41.61
5651;BME280;40241;52.684;9.758;2023-04-28T09:21:08;101063.91;;;17.81;40.21
5651;BME280;40241;52.684;9.758;2023-04-28T09:23:45;101062.41;;;17.93;41.06
5651;BME280;40241;52.684;9.758;2023-04-28T09:26:12;101069.91;;;17.98;41.05
5651;BME280;40241;52.684;9.758;2023-04-28T09:28:37;101057.50;;;18.00;40.96
5651;BME280;40241;52.684;9.758;2023-04-28T09:31:03;101054.28;;;18.09;40.80
5651;BME280;40241;52.684;9.758;2023-04-28T09:33:28;101051.59;;;18.16;40.75
5651;BME280;40241;52.684;9.758;2023-04-28T09:35:54;101055.44;;;18.26;40.76
5651;BME280;40241;52.684;9.758;2023-04-28T09:38:20;101047.97;;;18.34;40.81
5651;BME280;40241;52.684;9.758;2023-04-28T09:40:57;101037.78;;;18.37;39.58
5651;BME280;40241;52.684;9.758;2023-04-28T09:43:33;101042.59;;;18.36;40.74
5651;BME280;40241;52.684;9.758;2023-04-28T09:46:02;101039.28;;;18.38;40.35
5651;BME280;40241;52.684;9.758;2023-04-28T09:48:30;101039.69;;;18.42;40.39
5651;BME280;40241;52.684;9.758;2023-04-28T09:50:56;101045.06;;;18.40;40.12
5651;BME280;40241;52.684;9.758;2023-04-28T09:53:22;101036.50;;;18.38;40.35
5651;BME280;40241;52.684;9.758;2023-04-28T09:55:49;101035.63;;;18.43;39.91
5651;BME280;40241;52.684;9.758;2023-04-28T09:58:20;101029.53;;;18.44;39.78
5651;BME280;40241;52.684;9.758;2023-04-28T10:00:51;101025.34;;;18.51;39.77
5651;BME280;40241;52.684;9.758;2023-04-28T10:03:17;101025.03;;;18.54;39.72
5651;BME280;40241;52.684;9.758;2023-04-28T10:05:45;101026.31;;;18.53;39.83
5651;BME280;40241;52.684;9.758;2023-04-28T10:08:12;101023.19;;;18.57;39.84
5651;BME280;40241;52.684;9.758;2023-04-28T10:10:39;101027.69;;;18.60;39.89
5651;BME280;40241;52.684;9.758;2023-04-28T10:13:05;101021.72;;;18.56;39.75
5651;BME280;40241;52.684;9.758;2023-04-28T10:15:31;101028.47;;;18.47;39.15
5651;BME280;40241;52.684;9.758;2023-04-28T10:17:58;101021.06;;;18.37;39.71
5651;BME280;40241;52.684;9.758;2023-04-28T10:20:24;101016.56;;;18.34;39.81
5651;BME280;40241;52.684;9.758;2023-04-28T10:25:36;101018.50;;;18.26;39.97
5651;BME280;40241;52.684;9.758;2023-04-28T10:28:07;101010.38;;;18.15;39.21
5651;BME280;40241;52.684;9.758;2023-04-28T10:30:33;101022.69;;;18.06;40.07
5651;BME280;40241;52.684;9.758;2023-04-28T10:35:40;101019.56;;;17.83;40.96
5651;BME280;40241;52.684;9.758;2023-04-28T10:38:14;101021.28;;;17.73;41.11
5651;BME280;40241;52.684;9.758;2023-04-28T10:40:48;101023.41;;;17.67;41.65
5651;BME280;40241;52.684;9.758;2023-04-28T10:43:31;101023.59;;;17.56;41.82
5651;BME280;40241;52.684;9.758;2023-04-28T10:56:18;101012.84;;;17.47;42.45
5651;BME280;40241;52.684;9.758;2023-04-28T10:58:47;101010.28;;;17.49;42.78
5651;BME280;40241;52.684;9.758;2023-04-28T11:08:53;101010.06;;;17.47;43.06
5651;BME280;40241;52.684;9.758;2023-04-28T11:11:21;101005.78;;;17.46;43.32
5651;BME280;40241;52.684;9.758;2023-04-28T11:13:48;101002.78;;;17.44;43.17
5651;BME280;40241;52.684;9.758;2023-04-28T11:16:19;100998.69;;;17.45;43.13
5651;BME280;40241;52.684;9.758;2023-04-28T11:18:53;101004.72;;;17.49;43.29
5651;BME280;40241;52.684;9.758;2023-04-28T11:21:20;101004.97;;;17.51;43.26
5651;BME280;40241;52.684;9.758;2023-04-28T11:23:46;101009.16;;;17.58;42.96
5651;BME280;40241;52.684;9.758;2023-04-28T11:26:13;101001.53;;;17.58;42.76
5651;BME280;40241;52.684;9.758;2023-04-28T11:31:17;100986.81;;;17.76;42.70
5651;BME280;40241;52.684;9.758;2023-04-28T11:33:46;100993.00;;;17.82;42.40
5651;BME280;40241;52.684;9.758;2023-04-28T11:39:00;100979.00;;;18.14;42.53
5651;BME280;40241;52.684;9.758;2023-04-28T11:41:25;100972.22;;;18.36;41.69
5651;BME280;40241;52.684;9.758;2023-04-28T11:43:51;100976.16;;;18.53;41.33
5651;BME280;40241;52.684;9.758;2023-04-28T11:46:23;100977.50;;;18.73;41.06
5651;BME280;40241;52.684;9.758;2023-04-28T11:48:59;100971.13;;;18.86;40.00
5651;BME280;40241;52.684;9.758;2023-04-28T11:51:37;100967.88;;;18.95;40.54
5651;BME280;40241;52.684;9.758;2023-04-28T11:54:04;100974.81;;;19.01;40.80
5651;BME280;40241;52.684;9.758;2023-04-28T11:56:36;100971.47;;;19.03;40.40
5651;BME280;40241;52.684;9.758;2023-04-28T11:59:09;100969.38;;;19.16;40.60
5651;BME280;40241;52.684;9.758;2023-04-28T12:04:13;100954.03;;;19.51;39.88
5651;BME280;40241;52.684;9.758;2023-04-28T12:06:39;100947.22;;;19.60;39.98
5651;BME280;40241;52.684;9.758;2023-04-28T12:09:15;100949.69;;;19.63;39.36
5651;BME280;40241;52.684;9.758;2023-04-28T12:12:29;100951.03;;;19.70;38.56
5651;BME280;40241;52.684;9.758;2023-04-28T12:14:56;100955.69;;;19.75;39.73
5651;BME280;40241;52.684;9.758;2023-04-28T12:17:30;100948.44;;;19.72;39.81
5651;BME280;40241;52.684;9.758;2023-04-28T12:19:58;100943.25;;;19.76;39.46
5651;BME280;40241;52.684;9.758;2023-04-28T12:22:24;100939.94;;;19.85;39.84
5651;BME280;40241;52.684;9.758;2023-04-28T12:25:09;100935.84;;;19.86;38.36
5651;BME280;40241;52.684;9.758;2023-04-28T12:27:36;100934.94;;;19.91;39.68
5651;BME280;40241;52.684;9.758;2023-04-28T12:32:45;100910.38;;;19.89;39.06
5651;BME280;40241;52.684;9.758;2023-04-28T12:35:10;100907.66;;;20.12;39.13
5651;BME280;40241;52.684;9.758;2023-04-28T12:37:36;100893.63;;;20.40;38.88
5651;BME280;40241;52.684;9.758;2023-04-28T12:40:03;100908.38;;;20.56;38.55
5651;BME280;40241;52.684;9.758;2023-04-28T12:42:29;100889.94;;;20.53;38.43
5651;BME280;40241;52.684;9.758;2023-04-28T12:44:54;100908.00;;;20.52;38.77
5651;BME280;40241;52.684;9.758;2023-04-28T12:47:20;100903.53;;;20.56;38.72
5651;BME280;40241;52.684;9.758;2023-04-28T12:49:45;100902.81;;;20.63;38.67
5651;BME280;40241;52.684;9.758;2023-04-28T12:52:12;100904.69;;;20.68;38.46
5651;BME280;40241;52.684;9.758;2023-04-28T12:54:37;100911.22;;;20.63;38.18
5651;BME280;40241;52.684;9.758;2023-04-28T12:57:03;100912.69;;;20.57;38.55
5651;BME280;40241;52.684;9.758;2023-04-28T12:59:29;100911.19;;;20.48;38.38
5651;BME280;40241;52.684;9.758;2023-04-28T13:01:55;100910.00;;;20.36;38.57
5651;BME280;40241;52.684;9.758;2023-04-28T13:04:20;100911.06;;;20.18;38.48
5651;BME280;40241;52.684;9.758;2023-04-28T13:06:46;100908.41;;;20.05;38.57
5651;BME280;40241;52.684;9.758;2023-04-28T13:09:13;100903.66;;;19.92;38.83
5651;BME280;40241;52.684;9.758;2023-04-28T13:11:42;100898.81;;;19.85;38.66
5651;BME280;40241;52.684;9.758;2023-04-28T13:14:07;100901.00;;;19.79;38.88
5651;BME280;40241;52.684;9.758;2023-04-28T13:16:33;100891.88;;;19.79;39.07
5651;BME280;40241;52.684;9.758;2023-04-28T13:19:00;100880.19;;;19.88;39.12
5651;BME280;40241;52.684;9.758;2023-04-28T13:21:26;100869.13;;;20.10;39.08
5651;BME280;40241;52.684;9.758;2023-04-28T13:23:53;100867.00;;;20.47;38.44
5651;BME280;40241;52.684;9.758;2023-04-28T13:26:19;100865.94;;;20.72;38.12
5651;BME280;40241;52.684;9.758;2023-04-28T13:28:46;100867.41;;;20.88;38.01
5651;BME280;40241;52.684;9.758;2023-04-28T13:31:12;100867.06;;;21.15;37.88
5651;BME280;40241;52.684;9.758;2023-04-28T13:33:37;100866.28;;;21.37;37.77
5651;BME280;40241;52.684;9.758;2023-04-28T13:36:03;100869.09;;;21.37;37.32